Depesze METAR lotnisk w Polsce

EPWA EPMO EPKK EPLL EPWR EPKT EPGD EPPO EPRZ EPSC EPLB EPBY EPZG EPSY EPCE EPDA EPDE EPIR EPKS EPLK EPLY EPMB EPMI EPMM EPNA EPOK EPPR EPPW EPRA EPSN EPTM

METAR – format kodowanego raportu o pogodzie używany w meteorologii lotniczej i prognozie pogody. METAR jest akronimem od ang. Meteorological Aerodrome Report. Typowy METAR zawiera informację o temperaturze, ciśnieniu, temperaturze punktu rosy, sile i kierunku wiatru, opadzie, pokrywie chmur, wysokości podstawy chmur, widzialności, lecz może zawierać też inne informacje (np. stan dróg startowych).

Warszawa-Okęcie (EPWA)

METAR = EPWA 241600Z 13008KT 9999 -SHRA FEW028 SCT046CB 18/09 Q1009 NOSIG

STACJA........... EPWA - Warszawa-Okęcie (WAW)
POMIAR........... Tue May 24, 18:00 CEST
WIATR............ południowo wschodni (SE) z prędkością 15 km/h
WIDZIALNOŚĆ...... powyżej 10 kilometrów
WARUNKI.......... słaby: deszcz opad przelotny 
CHMURY........... zachmurzenie małe (3/8-4/8)
TEMPERATURA...... 18°C
T.PUNKTU ROSY.... 9°C
WILGOTNOŚĆ....... 56%
CIŚNIENIE........ 1009 hPa
CIŚN.BEZWZGL..... 996 hPa
PROGNOZA......... bez nagłych zmian w ciągu 2h

Sprawdź też: Prognoza pogody Warszawa


Warszawa-Modlin (EPMO)

METAR = EPMO 241600Z 14005KT 110V180 CAVOK 19/08 Q1009 =

STACJA........... EPMO - Warszawa-Modlin (WMI)
POMIAR........... Tue May 24, 18:00 CEST
WIATR............ południowo wschodni (SE) z prędkością 9 km/h
WIDZIALNOŚĆ...... powyżej 10 kilometrów
CHMURY........... bezchmurne niebo
TEMPERATURA...... 19°C
T.PUNKTU ROSY.... 8°C
WILGOTNOŚĆ....... 49%
CIŚNIENIE........ 1009 hPa
CIŚN.BEZWZGL..... 997 hPa

Sprawdź też: Prognoza pogody Nowy Dwór Mazowiecki


Kraków-Balice (EPKK)

METAR = EPKK 241600Z 03003KT 360V060 9999 FEW050 SCT065 20/12 Q1009

STACJA........... EPKK - Kraków-Balice (KRK)
POMIAR........... Tue May 24, 18:00 CEST
WIATR............ północno północno-wschodni (NNE) z prędkością 6 km/h
WIDZIALNOŚĆ...... powyżej 10 kilometrów
CHMURY........... zachmurzenie małe (3/8-4/8)
TEMPERATURA...... 20°C
T.PUNKTU ROSY.... 12°C
WILGOTNOŚĆ....... 60%
CIŚNIENIE........ 1009 hPa
CIŚN.BEZWZGL..... 981 hPa

Sprawdź też: Prognoza pogody Kraków


Łódź-Lublinek (EPLL)

METAR = EPLL 241600Z 12006KT 080V180 9999 BKN042 BKN048 19/12 Q1008

STACJA........... EPLL - Łódź-Lublinek (LCJ)
POMIAR........... Tue May 24, 18:00 CEST
WIATR............ wschodni południowo-wschodni (ESE) z prędkością 11 km/h
WIDZIALNOŚĆ...... powyżej 10 kilometrów
CHMURY........... zachmurzenie średnie (5/8-7/8)
TEMPERATURA...... 19°C
T.PUNKTU ROSY.... 12°C
WILGOTNOŚĆ....... 64%
CIŚNIENIE........ 1008 hPa
CIŚN.BEZWZGL..... 987 hPa

Sprawdź też: Prognoza pogody Łódź


Wrocław-Strachowice (EPWR)

METAR = EPWR 241600Z 32006KT 9999 FEW030CB 17/15 Q1008 RESHRA

STACJA........... EPWR - Wrocław-Strachowice (WRO)
POMIAR........... Tue May 24, 18:00 CEST
WIATR............ północno zachodni (NW) z prędkością 11 km/h
WIDZIALNOŚĆ...... powyżej 10 kilometrów
CHMURY........... zachmurzenie niewielkie (1/8-2/8)
TEMPERATURA...... 17°C
T.PUNKTU ROSY.... 15°C
WILGOTNOŚĆ....... 88%
CIŚNIENIE........ 1008 hPa
CIŚN.BEZWZGL..... 994 hPa
WCZEŚNIEJ........ obserwowane były zjawiska: opad przelotny, deszcz

Sprawdź też: Prognoza pogody Wrocław


Katowice-Pyrzowice (EPKT)

METAR = EPKT 241600Z 24012KT 9999 -SHRA FEW031 FEW040CB 18/13 Q1009

STACJA........... EPKT - Katowice-Pyrzowice (KTW)
POMIAR........... Tue May 24, 18:00 CEST
WIATR............ zachodni południowo-zachodni (WSW) z prędkością 22 km/h
WIDZIALNOŚĆ...... powyżej 10 kilometrów
WARUNKI.......... słaby: deszcz opad przelotny 
CHMURY........... zachmurzenie niewielkie (1/8-2/8)
TEMPERATURA...... 18°C
T.PUNKTU ROSY.... 13°C
WILGOTNOŚĆ....... 73%
CIŚNIENIE........ 1009 hPa
CIŚN.BEZWZGL..... 974 hPa

Sprawdź też: Prognoza pogody Katowice


Gdańsk (EPGD)

METAR = EPGD 241600Z 17010KT 9999 FEW014 BKN031 13/11 Q1008

STACJA........... EPGD - Gdańsk im. Lecha Wałęsy (GDN)
POMIAR........... Tue May 24, 18:00 CEST
WIATR............ południowy (S) z prędkością 19 km/h
WIDZIALNOŚĆ...... powyżej 10 kilometrów
CHMURY........... zachmurzenie średnie (5/8-7/8)
TEMPERATURA...... 13°C
T.PUNKTU ROSY.... 11°C
WILGOTNOŚĆ....... 88%
CIŚNIENIE........ 1008 hPa
CIŚN.BEZWZGL..... 990 hPa

Sprawdź też: Prognoza pogody Gdańsk


Poznań-Ławica (EPPO)

METAR = EPPO 241600Z 12007KT 9999 FEW033TCU 20/15 Q1007

STACJA........... EPPO - Poznań-Ławica (POZ)
POMIAR........... Tue May 24, 18:00 CEST
WIATR............ wschodni południowo-wschodni (ESE) z prędkością 13 km/h
WIDZIALNOŚĆ...... powyżej 10 kilometrów
CHMURY........... zachmurzenie niewielkie (1/8-2/8)
TEMPERATURA...... 20°C
T.PUNKTU ROSY.... 15°C
WILGOTNOŚĆ....... 73%
CIŚNIENIE........ 1007 hPa
CIŚN.BEZWZGL..... 996 hPa

Sprawdź też: Prognoza pogody Poznań


Rzeszów-Jasionka (EPRZ)

METAR = EPRZ 241600Z 18003KT CAVOK 21/10 Q1010

STACJA........... EPRZ - Rzeszów-Jasionka (RZE)
POMIAR........... Tue May 24, 18:00 CEST
WIATR............ południowy (S) z prędkością 6 km/h
WIDZIALNOŚĆ...... powyżej 10 kilometrów
CHMURY........... bezchmurne niebo
TEMPERATURA...... 21°C
T.PUNKTU ROSY.... 10°C
WILGOTNOŚĆ....... 50%
CIŚNIENIE........ 1010 hPa
CIŚN.BEZWZGL..... 986 hPa

Sprawdź też: Prognoza pogody Rzeszów


Szczecin-Goleniów (EPSC)

METAR = EPSC 241600Z 10006KT 9999 FEW039 19/14 Q1006

STACJA........... EPSC - Szczecin-Goleniów (SZZ)
POMIAR........... Tue May 24, 18:00 CEST
WIATR............ wschodni (E) z prędkością 11 km/h
WIDZIALNOŚĆ...... powyżej 10 kilometrów
CHMURY........... zachmurzenie niewielkie (1/8-2/8)
TEMPERATURA...... 19°C
T.PUNKTU ROSY.... 14°C
WILGOTNOŚĆ....... 73%
CIŚNIENIE........ 1006 hPa
CIŚN.BEZWZGL..... 1001 hPa

Sprawdź też: Prognoza pogody Szczecin


Lublin-Świdnik (EPLB)

METAR = EPLB 241600Z 12004KT 9999 FEW060CB 20/09 Q1010 =

STACJA........... EPLB - Lublin-Świdnik (LUZ)
POMIAR........... Tue May 24, 18:00 CEST
WIATR............ wschodni południowo-wschodni (ESE) z prędkością 7 km/h
WIDZIALNOŚĆ...... powyżej 10 kilometrów
CHMURY........... zachmurzenie niewielkie (1/8-2/8)
TEMPERATURA...... 20°C
T.PUNKTU ROSY.... 9°C
WILGOTNOŚĆ....... 49%
CIŚNIENIE........ 1010 hPa
CIŚN.BEZWZGL..... 986 hPa

Sprawdź też: Prognoza pogody Lublin


Bydgoszcz-Szwederowo (EPBY)

METAR = EPBY 241600Z 15007KT 120V190 9999 FEW047 17/11 Q1007=

STACJA........... EPBY - Bydgoszcz-Szwederowo (BZG)
POMIAR........... Tue May 24, 18:00 CEST
WIATR............ południowo południowo-wschodni (SSE) z prędkością 13 km/h
WIDZIALNOŚĆ...... powyżej 10 kilometrów
CHMURY........... zachmurzenie niewielkie (1/8-2/8)
TEMPERATURA...... 17°C
T.PUNKTU ROSY.... 11°C
WILGOTNOŚĆ....... 68%
CIŚNIENIE........ 1007 hPa
CIŚN.BEZWZGL..... 999 hPa

Sprawdź też: Prognoza pogody Bydgoszcz


Zielona Góra-Babimost (EPZG)

METAR = EPZG 241600Z 21006KT CAVOK 23/13 Q1006 =

STACJA........... EPZG - Zielona Góra-Babimost (IEG)
POMIAR........... Tue May 24, 18:00 CEST
WIATR............ południowo południowo-zachodni  (SSW) z prędkością 11 km/h
WIDZIALNOŚĆ...... powyżej 10 kilometrów
CHMURY........... bezchmurne niebo
TEMPERATURA...... 23°C
T.PUNKTU ROSY.... 13°C
WILGOTNOŚĆ....... 53%
CIŚNIENIE........ 1006 hPa
CIŚN.BEZWZGL..... 999 hPa

Sprawdź też: Prognoza pogody Zielona Góra


Szymany Olsztyn-Mazury (EPSY)

METAR = EPSY 241600Z 20013KT 9999 -SHRA SCT022CB 18/08 Q1010=

STACJA........... EPSY - Olsztyn-Mazury (SZY)
POMIAR........... Tue May 24, 18:00 CEST
WIATR............ południowo południowo-zachodni  (SSW) z prędkością 24 km/h
WIDZIALNOŚĆ...... powyżej 10 kilometrów
WARUNKI.......... słaby: deszcz opad przelotny 
CHMURY........... zachmurzenie małe (3/8-4/8)
TEMPERATURA...... 18°C
T.PUNKTU ROSY.... 8°C
WILGOTNOŚĆ....... 52%
CIŚNIENIE........ 1010 hPa
CIŚN.BEZWZGL..... 994 hPa

Sprawdź też: Prognoza pogody Olsztyn


Cewice (EPCE)

METAR = 

STACJA........... EPCE - Cewice
POMIAR........... Thu Jan 1, 03:00 CET
BŁĄD............. Dane niedostępne.

Darłowo (EPDA)

METAR = 

STACJA........... EPDA - Darłowo
POMIAR........... Thu Jan 1, 03:00 CET
BŁĄD............. Dane niedostępne.

Dęblin (EPDE)

METAR = 

STACJA........... EPDE - Dęblin
POMIAR........... Thu Jan 1, 03:00 CET
BŁĄD............. Dane niedostępne.

Inowrocław-Latkowo (EPIR)

METAR = 

STACJA........... EPIR - Inowrocław-Latkowo
POMIAR........... Thu Jan 1, 03:00 CET
BŁĄD............. Dane niedostępne.

Poznań-Krzesiny (EPKS)

METAR = 

STACJA........... EPKS - Poznań-Krzesiny
POMIAR........... Thu Jan 1, 03:00 CET
BŁĄD............. Dane niedostępne.

Łask (EPLK)

METAR = 

STACJA........... EPLK - Łask
POMIAR........... Thu Jan 1, 03:00 CET
BŁĄD............. Dane niedostępne.

Łęczyca (EPLY)

METAR = 

STACJA........... EPLY - Łęczyca
POMIAR........... Thu Jan 1, 03:00 CET
BŁĄD............. Dane niedostępne.

Malbork (EPMB)

METAR = 

STACJA........... EPMB - Malbork
POMIAR........... Thu Jan 1, 03:00 CET
BŁĄD............. Dane niedostępne.

Mirosławiec (EPMI)

METAR = 

STACJA........... EPMI - Mirosławiec
POMIAR........... Thu Jan 1, 03:00 CET
BŁĄD............. Dane niedostępne.

Mińsk Mazowiecki (EPMM)

METAR = 

STACJA........... EPMM - Mińsk Mazowiecki
POMIAR........... Thu Jan 1, 03:00 CET
BŁĄD............. Dane niedostępne.

Nadarzyce (EPNA)

METAR = 

STACJA........... EPNA - Nadarzyce
POMIAR........... Thu Jan 1, 03:00 CET
BŁĄD............. Dane niedostępne.

Gdynia-Kosakowo (EPOK)

METAR = 

STACJA........... EPOK - Gdynia-Kosakowo
POMIAR........... Thu Jan 1, 03:00 CET
BŁĄD............. Dane niedostępne.

Pruszcz Gdański (EPPR)

METAR = 

STACJA........... EPPR - Pruszcz Gdański
POMIAR........... Thu Jan 1, 03:00 CET
BŁĄD............. Dane niedostępne.

Powidz (EPPW)

METAR = 

STACJA........... EPPW - Powidz
POMIAR........... Thu Jan 1, 03:00 CET
BŁĄD............. Dane niedostępne.

Radom-Sadków (EPRA)

METAR = 

STACJA........... EPRA - Radom-Sadków
POMIAR........... Thu Jan 1, 03:00 CET
BŁĄD............. Dane niedostępne.

Świdwin (EPSN)

METAR = 

STACJA........... EPSN - Świdwin
POMIAR........... Thu Jan 1, 03:00 CET
BŁĄD............. Dane niedostępne.

Tomaszów Mazowiecki (EPTM)

METAR = 

STACJA........... EPTM - Tomaszów Mazowiecki
POMIAR........... Thu Jan 1, 03:00 CET
BŁĄD............. Dane niedostępne.